createdAt,value
2023-03-19T00:01:51.977Z,23.90
2023-03-19T00:04:19.079Z,26.00
2023-03-19T00:06:46.226Z,29.10
2023-03-19T00:09:13.061Z,29.90
2023-03-19T00:11:39.925Z,24.90
2023-03-19T00:14:06.774Z,28.20
2023-03-19T00:16:33.968Z,28.20
2023-03-19T00:19:01.307Z,30.00
2023-03-19T00:21:30.551Z,30.00
2023-03-19T00:24:02.430Z,29.40
2023-03-19T00:26:30.468Z,25.90
2023-03-19T00:28:58.174Z,26.40
2023-03-19T00:31:26.298Z,27.90
2023-03-19T00:33:53.313Z,23.50
2023-03-19T00:36:20.295Z,27.50
2023-03-19T00:38:47.540Z,28.70
2023-03-19T00:41:15.491Z,24.30
2023-03-19T00:43:42.266Z,24.80
2023-03-19T00:46:09.247Z,20.30
2023-03-19T00:48:36.054Z,24.40
2023-03-19T00:51:08.103Z,22.00
2023-03-19T00:53:42.729Z,27.00
2023-03-19T00:56:11.700Z,20.90
2023-03-19T00:58:38.939Z,23.80
2023-03-19T01:01:06.739Z,20.80
2023-03-19T01:03:34.046Z,22.60
2023-03-19T01:06:01.015Z,23.30
2023-03-19T01:08:27.891Z,21.60
2023-03-19T01:10:54.738Z,18.50
2023-03-19T01:13:21.610Z,21.60
2023-03-19T01:15:52.561Z,21.30
2023-03-19T01:18:19.599Z,17.50
2023-03-19T01:20:46.396Z,17.90
2023-03-19T01:23:13.720Z,21.00
2023-03-19T01:25:40.570Z,15.90
2023-03-19T01:28:07.751Z,17.60
2023-03-19T01:30:37.366Z,17.10
2023-03-19T01:33:25.495Z,21.20
2023-03-19T01:36:06.033Z,20.90
2023-03-19T01:38:38.899Z,23.30
2023-03-19T01:41:10.193Z,22.00
2023-03-19T01:43:37.611Z,20.50
2023-03-19T01:49:13.872Z,19.70
2023-03-19T01:51:47.493Z,19.40
2023-03-19T01:54:32.582Z,16.90
2023-03-19T01:57:16.552Z,17.50
2023-03-19T02:00:05.602Z,26.20
2023-03-19T02:05:26.032Z,17.40
2023-03-19T02:07:59.574Z,21.40
2023-03-19T02:10:27.272Z,20.80
2023-03-19T02:12:54.212Z,24.60
2023-03-19T02:15:21.608Z,27.30
2023-03-19T02:17:48.979Z,26.90
2023-03-19T02:20:32.952Z,25.00
2023-03-19T02:23:20.928Z,27.10
2023-03-19T02:25:55.031Z,28.90
2023-03-19T02:28:23.583Z,26.00
2023-03-19T02:30:52.360Z,26.50
2023-03-19T02:33:19.456Z,25.90
2023-03-19T02:35:49.412Z,24.70
2023-03-19T02:38:17.870Z,22.10
2023-03-19T02:41:06.247Z,25.80
2023-03-19T02:43:35.499Z,24.80
2023-03-19T02:46:06.077Z,26.20
2023-03-19T02:48:33.146Z,23.20
2023-03-19T02:50:59.957Z,26.90
2023-03-19T02:53:27.207Z,32.30
2023-03-19T02:55:53.988Z,29.10
2023-03-19T02:58:20.997Z,26.50
2023-03-19T03:00:47.915Z,32.40
2023-03-19T03:03:14.747Z,30.40
2023-03-19T03:05:41.501Z,31.30
2023-03-19T03:08:09.416Z,29.80
2023-03-19T03:10:36.626Z,33.00
2023-03-19T03:13:05.554Z,27.90
2023-03-19T03:15:32.272Z,28.80
2023-03-19T03:17:59.191Z,33.30
2023-03-19T03:20:26.004Z,32.60
2023-03-19T03:22:53.760Z,37.00
2023-03-19T03:25:21.295Z,40.80
2023-03-19T03:27:48.389Z,32.70
2023-03-19T03:30:16.238Z,36.10
2023-03-19T03:32:44.075Z,32.20
2023-03-19T03:35:11.227Z,33.50
2023-03-19T03:37:39.737Z,26.30
2023-03-19T03:40:08.532Z,30.00
2023-03-19T03:42:37.489Z,29.30
2023-03-19T03:45:05.526Z,30.00
2023-03-19T03:47:32.701Z,42.80
2023-03-19T03:49:59.966Z,42.30
2023-03-19T03:52:31.428Z,49.50
2023-03-19T03:54:58.585Z,46.50
2023-03-19T03:57:26.727Z,65.80
2023-03-19T03:59:54.460Z,63.70
2023-03-19T04:02:21.828Z,40.20
2023-03-19T04:04:49.147Z,22.40
2023-03-19T04:07:16.049Z,28.80
2023-03-19T04:09:46.633Z,30.20
2023-03-19T04:12:14.250Z,29.60
2023-03-19T04:14:41.992Z,33.40
2023-03-19T04:17:09.597Z,28.90
2023-03-19T04:19:36.596Z,41.90
2023-03-19T04:22:03.688Z,35.30
2023-03-19T04:24:31.517Z,25.10
2023-03-19T04:26:58.510Z,18.00
2023-03-19T04:29:25.733Z,19.90
2023-03-19T04:31:52.661Z,20.60
2023-03-19T04:34:19.793Z,19.30
2023-03-19T04:36:47.372Z,20.90
2023-03-19T04:39:14.633Z,21.30
2023-03-19T04:41:41.874Z,17.70
2023-03-19T04:44:29.105Z,20.20
2023-03-19T04:46:56.224Z,15.50
2023-03-19T04:49:24.543Z,20.80
2023-03-19T04:51:51.990Z,20.40
2023-03-19T04:54:19.208Z,21.60
2023-03-19T04:56:46.026Z,19.90
2023-03-19T04:59:13.022Z,17.30
2023-03-19T05:01:40.020Z,19.30
2023-03-19T05:04:09.772Z,21.60
2023-03-19T05:06:40.060Z,25.90
2023-03-19T05:09:07.743Z,19.20
2023-03-19T05:11:34.918Z,22.70
2023-03-19T05:14:12.453Z,24.30
2023-03-19T05:16:56.250Z,30.10
2023-03-19T05:19:25.209Z,22.70
2023-03-19T05:21:52.769Z,26.40
2023-03-19T05:24:24.719Z,19.00
2023-03-19T05:26:52.458Z,24.50
2023-03-19T05:29:31.211Z,19.30
2023-03-19T05:32:21.215Z,22.70
2023-03-19T05:34:48.218Z,23.80
2023-03-19T05:37:15.428Z,27.10
2023-03-19T05:39:45.372Z,23.10
2023-03-19T05:42:14.783Z,17.90
2023-03-19T05:44:42.149Z,19.30
2023-03-19T05:47:27.128Z,23.30
2023-03-19T05:49:55.323Z,17.90
2023-03-19T05:52:22.993Z,16.00
2023-03-19T05:54:50.783Z,17.30
2023-03-19T05:57:30.329Z,19.20
2023-03-19T06:00:06.715Z,19.80
2023-03-19T06:02:34.482Z,16.70
2023-03-19T06:05:16.858Z,20.80
2023-03-19T06:07:44.034Z,20.80
2023-03-19T06:10:18.192Z,30.10
2023-03-19T06:12:45.958Z,28.20
2023-03-19T06:18:07.455Z,29.30
2023-03-19T06:20:35.392Z,30.60
2023-03-19T06:23:02.748Z,31.20
2023-03-19T06:25:30.030Z,24.90
2023-03-19T06:27:56.769Z,24.90
2023-03-19T06:30:34.358Z,23.20
2023-03-19T06:33:03.069Z,23.90
2023-03-19T06:35:31.316Z,22.60
2023-03-19T06:37:58.426Z,17.60
2023-03-19T06:40:25.238Z,21.50
2023-03-19T06:42:52.456Z,14.20
2023-03-19T06:45:20.332Z,14.60
2023-03-19T06:47:47.738Z,13.50
2023-03-19T06:50:16.540Z,10.30
2023-03-19T06:52:43.975Z,9.50
2023-03-19T06:55:12.389Z,12.90
2023-03-19T06:57:39.458Z,26.20
2023-03-19T07:00:07.443Z,15.90
2023-03-19T07:02:34.273Z,14.10
2023-03-19T07:05:01.050Z,10.60
2023-03-19T07:07:27.868Z,13.80
2023-03-19T07:09:54.585Z,11.30
2023-03-19T07:12:21.556Z,11.80
2023-03-19T07:14:48.320Z,9.70
2023-03-19T07:17:15.483Z,11.90
2023-03-19T07:19:42.327Z,9.60
2023-03-19T07:22:09.123Z,13.40
2023-03-19T07:24:36.071Z,13.00
2023-03-19T07:27:03.235Z,9.90
2023-03-19T07:29:30.172Z,11.80
2023-03-19T07:31:57.462Z,10.20
2023-03-19T07:34:24.537Z,9.40
2023-03-19T07:36:51.708Z,11.00
2023-03-19T07:39:19.079Z,8.50
2023-03-19T07:41:48.649Z,8.40
2023-03-19T07:44:16.609Z,11.80
2023-03-19T07:46:43.439Z,8.10
2023-03-19T07:49:10.446Z,7.70
2023-03-19T07:51:37.323Z,8.40
2023-03-19T07:54:04.260Z,9.90
2023-03-19T07:56:31.293Z,7.80
2023-03-19T07:58:58.496Z,10.00
2023-03-19T08:01:26.133Z,8.80
2023-03-19T08:03:52.970Z,9.20
2023-03-19T08:06:19.742Z,9.00
2023-03-19T08:08:46.866Z,8.90
2023-03-19T08:11:13.694Z,8.60
2023-03-19T08:13:40.482Z,7.60
2023-03-19T08:16:07.368Z,9.90
2023-03-19T08:18:34.831Z,8.20
2023-03-19T08:21:01.814Z,7.80
2023-03-19T08:23:28.669Z,8.00
2023-03-19T08:25:57.150Z,9.30
2023-03-19T08:28:24.089Z,9.20
2023-03-19T08:30:50.974Z,9.10
2023-03-19T08:33:18.118Z,9.50
2023-03-19T08:35:45.014Z,7.30
2023-03-19T08:38:12.081Z,10.00
2023-03-19T08:40:56.736Z,8.00
2023-03-19T08:43:23.548Z,9.80
2023-03-19T08:45:50.381Z,7.70
2023-03-19T08:48:17.325Z,8.70
2023-03-19T08:50:44.109Z,9.60
2023-03-19T08:53:11.126Z,11.20
2023-03-19T08:55:38.065Z,13.50
2023-03-19T08:58:04.952Z,9.40
2023-03-19T09:00:31.887Z,8.80
2023-03-19T09:02:58.756Z,9.10
2023-03-19T09:05:27.575Z,10.40
2023-03-19T09:07:55.496Z,9.80
2023-03-19T09:10:22.351Z,9.80
2023-03-19T09:12:49.307Z,9.30
2023-03-19T09:15:17.079Z,7.20
2023-03-19T09:17:44.462Z,8.00
2023-03-19T09:20:11.612Z,7.50
2023-03-19T09:22:38.479Z,6.90
2023-03-19T09:25:05.926Z,8.50
2023-03-19T09:27:32.755Z,9.70
2023-03-19T09:29:59.701Z,9.30
2023-03-19T09:32:26.735Z,10.60
2023-03-19T09:34:53.779Z,8.30
2023-03-19T09:37:20.592Z,6.80
2023-03-19T09:39:47.474Z,6.70
2023-03-19T09:42:37.073Z,7.40
2023-03-19T09:45:04.639Z,6.10
2023-03-19T09:47:34.211Z,9.80
2023-03-19T09:50:14.771Z,10.00
2023-03-19T09:52:47.166Z,11.00
2023-03-19T09:55:19.346Z,12.80
2023-03-19T09:57:47.737Z,8.70
2023-03-19T10:00:17.530Z,8.90
2023-03-19T10:02:44.476Z,13.00
2023-03-19T10:05:35.984Z,9.20
2023-03-19T10:08:32.866Z,8.40
2023-03-19T10:11:17.922Z,8.90
2023-03-19T10:14:02.560Z,8.60
2023-03-19T10:16:30.824Z,6.80
2023-03-19T10:19:02.841Z,7.20
2023-03-19T10:24:06.605Z,6.30
2023-03-19T10:26:38.004Z,7.70
2023-03-19T10:29:20.878Z,6.20
2023-03-19T10:32:09.309Z,7.80
2023-03-19T10:34:58.494Z,6.40
2023-03-19T10:37:28.844Z,6.60
2023-03-19T10:39:58.320Z,8.10
2023-03-19T10:42:36.892Z,8.80
2023-03-19T10:45:26.771Z,7.00
2023-03-19T10:47:56.225Z,5.30
2023-03-19T10:50:57.649Z,8.20
2023-03-19T10:53:35.591Z,6.40
2023-03-19T10:56:24.252Z,6.80
2023-03-19T10:59:06.362Z,8.30
2023-03-19T11:01:39.940Z,6.50
2023-03-19T11:04:18.707Z,9.50
2023-03-19T11:06:50.848Z,7.40
2023-03-19T11:09:28.549Z,9.00
2023-03-19T11:12:05.655Z,8.00
2023-03-19T11:14:39.628Z,10.00
2023-03-19T11:17:18.313Z,6.00
2023-03-19T11:19:52.480Z,5.60
2023-03-19T11:22:23.198Z,4.80
2023-03-19T11:24:54.458Z,6.70
2023-03-19T11:27:34.969Z,5.80
2023-03-19T11:30:07.154Z,6.70
2023-03-19T11:32:58.504Z,5.30
2023-03-19T11:35:57.261Z,6.00
2023-03-19T11:38:52.567Z,4.40
2023-03-19T11:41:57.045Z,5.90
2023-03-19T11:44:35.531Z,8.30
2023-03-19T11:47:17.850Z,6.10
2023-03-19T11:50:18.789Z,5.70
2023-03-19T11:53:11.677Z,5.90
2023-03-19T11:55:57.415Z,6.70
2023-03-19T11:58:30.256Z,5.80
2023-03-19T12:01:01.721Z,5.50
2023-03-19T12:03:56.579Z,4.20
2023-03-19T12:07:01.131Z,5.50
2023-03-19T12:09:57.371Z,7.40
2023-03-19T12:12:37.029Z,8.20
2023-03-19T12:15:20.734Z,9.70
2023-03-19T12:18:03.050Z,6.10
2023-03-19T12:20:42.308Z,7.00
2023-03-19T12:23:37.698Z,5.30
2023-03-19T12:26:10.064Z,8.50
2023-03-19T12:28:43.837Z,8.40
2023-03-19T12:31:36.352Z,7.30
2023-03-19T12:34:34.122Z,7.10
2023-03-19T12:37:14.847Z,6.80
2023-03-19T12:39:53.173Z,5.10
2023-03-19T12:42:22.479Z,5.70
2023-03-19T12:44:57.308Z,7.00
2023-03-19T12:47:33.940Z,5.80
2023-03-19T12:50:27.469Z,5.30
2023-03-19T12:52:58.616Z,6.00
2023-03-19T12:55:43.668Z,7.80
2023-03-19T12:58:14.553Z,5.30
2023-03-19T13:01:03.613Z,5.90
2023-03-19T13:03:53.538Z,4.60
2023-03-19T13:06:23.704Z,10.30
2023-03-19T13:09:04.014Z,6.70
2023-03-19T13:11:39.813Z,7.40
2023-03-19T13:14:17.436Z,4.70
2023-03-19T13:16:57.924Z,7.30
2023-03-19T13:19:35.700Z,4.00
2023-03-19T13:22:11.845Z,5.00
2023-03-19T13:24:41.701Z,6.30
2023-03-19T13:27:16.424Z,5.30
2023-03-19T13:33:04.439Z,5.70
2023-03-19T13:35:45.746Z,5.70
2023-03-19T13:38:19.053Z,4.90
2023-03-19T13:40:51.498Z,6.30
2023-03-19T13:43:44.303Z,8.10
2023-03-19T13:46:13.891Z,4.70
2023-03-19T13:48:46.558Z,5.20
2023-03-19T13:51:17.814Z,5.20
2023-03-19T13:53:54.228Z,6.20
2023-03-19T13:56:30.002Z,6.00
2023-03-19T13:59:16.142Z,6.30
2023-03-19T14:01:44.931Z,6.90
2023-03-19T14:04:35.344Z,6.10
2023-03-19T14:07:18.203Z,7.00
2023-03-19T14:09:49.563Z,5.00
2023-03-19T14:12:26.105Z,8.60
2023-03-19T14:14:58.663Z,7.50
2023-03-19T14:17:38.512Z,6.50
2023-03-19T14:20:37.608Z,5.60
2023-03-19T14:23:06.524Z,6.70
2023-03-19T14:26:05.275Z,7.20
2023-03-19T14:28:59.348Z,5.10
2023-03-19T14:31:47.609Z,5.50
2023-03-19T14:34:34.304Z,7.80
2023-03-19T14:37:08.423Z,8.40
2023-03-19T14:39:49.060Z,6.20
2023-03-19T14:42:19.926Z,5.00
2023-03-19T14:45:18.515Z,5.50
2023-03-19T14:48:05.885Z,5.60
2023-03-19T14:50:35.709Z,5.10
2023-03-19T14:53:15.589Z,5.20
2023-03-19T14:55:43.032Z,5.30
2023-03-19T14:58:13.025Z,4.90
2023-03-19T15:00:47.217Z,6.20
2023-03-19T15:03:28.639Z,9.50
2023-03-19T15:06:01.122Z,5.40
2023-03-19T15:08:31.482Z,7.80
2023-03-19T15:11:19.309Z,5.30
2023-03-19T15:14:12.759Z,6.90
2023-03-19T15:16:54.571Z,6.70
2023-03-19T15:19:28.876Z,4.20
2023-03-19T15:22:13.508Z,4.30
2023-03-19T15:24:40.903Z,6.00
2023-03-19T15:40:11.518Z,6.70
2023-03-19T15:42:39.385Z,5.20
2023-03-19T15:45:14.982Z,9.60
2023-03-19T15:47:54.463Z,6.70
2023-03-19T15:50:25.961Z,6.90
2023-03-19T15:52:59.531Z,7.80
2023-03-19T15:57:58.002Z,7.10
2023-03-19T16:00:25.326Z,9.90
2023-03-19T16:02:52.886Z,8.90
2023-03-19T16:05:29.812Z,8.90
2023-03-19T16:08:17.870Z,6.40
2023-03-19T16:10:45.934Z,6.50
2023-03-19T16:13:31.208Z,5.90
2023-03-19T16:16:05.293Z,8.30
2023-03-19T16:18:45.556Z,11.60
2023-03-19T16:21:18.132Z,11.40
2023-03-19T16:24:14.144Z,12.90
2023-03-19T16:26:44.495Z,13.40
2023-03-19T16:29:22.744Z,9.60
2023-03-19T16:31:52.255Z,9.10
2023-03-19T16:34:31.989Z,8.30
2023-03-19T16:36:59.779Z,12.50
2023-03-19T16:39:37.095Z,10.50
2023-03-19T16:42:09.538Z,15.60
2023-03-19T16:44:41.028Z,10.30
2023-03-19T16:47:12.741Z,11.10
2023-03-19T16:49:39.562Z,12.30
2023-03-19T16:52:12.179Z,12.20
2023-03-19T16:54:38.995Z,12.40
2023-03-19T16:57:06.214Z,11.90
2023-03-19T16:59:33.165Z,12.80
2023-03-19T17:02:00.043Z,14.80
2023-03-19T17:04:29.112Z,10.80
2023-03-19T17:06:56.100Z,12.30
2023-03-19T17:09:23.607Z,12.50
2023-03-19T17:11:50.742Z,12.40
2023-03-19T17:14:21.284Z,11.20
2023-03-19T17:16:50.854Z,16.20
2023-03-19T17:19:22.208Z,13.60
2023-03-19T17:21:53.542Z,15.50
2023-03-19T17:24:30.065Z,21.30
2023-03-19T17:26:59.451Z,19.10
2023-03-19T17:29:27.300Z,13.30
2023-03-19T17:31:56.043Z,11.60
2023-03-19T17:34:26.579Z,20.40
2023-03-19T17:37:04.233Z,19.50
2023-03-19T17:39:31.627Z,13.00
2023-03-19T17:41:59.718Z,17.60
2023-03-19T17:44:27.979Z,21.10
2023-03-19T17:46:57.145Z,23.30
2023-03-19T17:49:30.132Z,33.20
2023-03-19T17:51:57.431Z,40.20
2023-03-19T17:54:26.856Z,30.40
2023-03-19T17:56:56.750Z,27.80
2023-03-19T17:59:24.075Z,24.60
2023-03-19T18:01:52.216Z,27.10
2023-03-19T18:04:21.480Z,25.20
2023-03-19T18:06:56.655Z,24.20
2023-03-19T18:09:27.005Z,28.40
2023-03-19T18:11:54.374Z,25.70
2023-03-19T18:14:21.349Z,25.50
2023-03-19T18:16:48.590Z,28.60
2023-03-19T18:19:37.745Z,29.30
2023-03-19T18:22:16.701Z,28.40
2023-03-19T18:24:44.365Z,24.30
2023-03-19T18:27:11.218Z,29.00
2023-03-19T18:29:38.445Z,25.40
2023-03-19T18:32:13.150Z,26.20
2023-03-19T18:34:39.918Z,29.90
2023-03-19T18:37:06.845Z,27.20
2023-03-19T18:39:38.094Z,27.90
2023-03-19T18:42:04.963Z,39.10
2023-03-19T18:44:31.928Z,31.90
2023-03-19T18:46:58.828Z,32.60
2023-03-19T18:49:27.440Z,30.40
2023-03-19T18:52:02.753Z,29.90
2023-03-19T18:54:33.550Z,25.60
2023-03-19T18:57:01.788Z,24.90
2023-03-19T18:59:33.118Z,24.80
2023-03-19T19:07:29.991Z,25.60
2023-03-19T19:09:56.817Z,22.90
2023-03-19T19:12:27.188Z,28.60
2023-03-19T19:14:54.112Z,23.70
2023-03-19T19:17:24.802Z,22.60
2023-03-19T19:19:51.658Z,28.10
2023-03-19T19:22:19.630Z,25.50
2023-03-19T19:24:47.150Z,22.70
2023-03-19T19:27:22.143Z,20.70
2023-03-19T19:29:50.372Z,92.40
2023-03-19T19:32:20.889Z,78.60
2023-03-19T19:35:08.009Z,44.30
2023-03-19T19:37:35.202Z,32.90
2023-03-19T19:40:04.526Z,33.60
2023-03-19T20:02:57.480Z,29.40
2023-03-19T20:05:28.031Z,26.00
2023-03-19T20:07:58.578Z,27.70
2023-03-19T20:10:28.084Z,24.70
2023-03-19T20:12:58.685Z,23.70
2023-03-19T20:15:29.539Z,28.60
2023-03-19T20:17:58.011Z,43.90
2023-03-19T20:20:28.251Z,73.50
2023-03-19T20:22:56.852Z,57.90
2023-03-19T20:25:26.629Z,41.00
2023-03-19T20:27:59.479Z,55.80
2023-03-19T20:30:27.900Z,37.90
2023-03-19T20:32:56.299Z,36.70
2023-03-19T20:35:26.214Z,37.40
2023-03-19T20:37:54.595Z,39.00
2023-03-19T20:40:24.278Z,46.30
2023-03-19T20:42:52.617Z,128.90
2023-03-19T20:45:24.875Z,62.80
2023-03-19T20:50:28.778Z,59.40
2023-03-19T20:53:01.277Z,54.10
2023-03-19T20:55:35.085Z,61.90
2023-03-19T20:58:04.327Z,47.20
2023-03-19T21:00:33.789Z,51.20
2023-03-19T21:03:02.400Z,53.40
2023-03-19T21:05:36.512Z,38.00
2023-03-19T21:08:12.078Z,72.70
2023-03-19T21:10:44.772Z,65.50
2023-03-19T21:13:17.916Z,66.40
2023-03-19T21:15:46.491Z,65.90
2023-03-19T21:18:13.837Z,60.90
2023-03-19T21:20:42.697Z,60.50
2023-03-19T21:23:19.066Z,59.40
2023-03-19T21:25:47.321Z,50.50
2023-03-19T21:28:29.485Z,58.00
2023-03-19T21:30:57.796Z,53.80
2023-03-19T21:33:28.160Z,48.60
2023-03-19T21:35:56.488Z,52.60
2023-03-19T21:38:23.701Z,58.60
